Ashland, WV

12:29 AM EST on February 11, 2016 (GMT -0500)
APRSWXNET | | Change Station
CLOSE
Current Station
Personal Weather Station
Location: Lashmeet, WV
Elevation: 2647 ft
Nearby Weather Stations

Elev 2647 ft 37.42 °N, 81.20 °W | Updated 29 minutes ago

Overcast
Overcast
12 °F
Feels Like 4 °F
N
5
Wind Variable Wind from WNW
Gusts 0.0 mph

Today
High -- | Low -- °F
--% Chance of Precip.
Yesterday
High -- | Low -- °F
Precip. -- in
Pressure 30.09 in
Visibility 8.0 miles
Clouds Overcast 2700 ft
Windchill 4 °F
Dew Point 8 °F
Humidity 85%
Rainfall in
Snow Depth Not available.
7:19 AM 6:00 PM
Waxing Crescent, 9% visible
METAR KBLF 110452Z AUTO 29010G22KT 8SM OVC027 M13/M17 A2995 RMK AO2 PK WND 28028/0416 SNB0355E48 SLP190 P0000 T11281172 410941128 TSNO
Pressure 30.09 in
Visibility 8.0 miles
Clouds Overcast 2700 ft
Windchill 4 °F
Dew Point 8 °F
Humidity 85%
Rainfall in
Snow Depth Not available.
7:19 AM 6:00 PM
Waxing Crescent, 9% visible
METAR KBLF 110452Z AUTO 29010G22KT 8SM OVC027 M13/M17 A2995 RMK AO2 PK WND 28028/0416 SNB0355E48 SLP190 P0000 T11281172 410941128 TSNO

10-Day Weather Forecast

Almanac

Astronomy

Feb. 11, 2016 Rise Set
Actual Time
Civil Twilight
Nautical Twilight
Astronomical Twilight
Moon
Length of Visible Light
Length of Day
Tomorrow will be .
, % of the Moon is Illuminated

Today's Extremes

State Highs State Lows

Community

WunderPhotos

Upload Photos

1,892,023 photos uploaded!

WunderBlog® & News

Nearby

Air Quality

  Air Quality AQ Index Pollutant
Not available.

Snow Depth

Station Depth Elevation

Earthquake Activity

City Distance Mag. Time & Date
Minimum magnitude displayed is 2.5.

Coastal Water Temperatures

Place Temperature

Stations

Nearby Weather Stations

Station Location Temp. Windchill Dew Point Humidity Wind Precip. Elev Updated Type
                   

Watches & Warnings

There are currently no watches in effect.